createdAt,value
2023-05-08T00:00:42.288Z,0.8
2023-05-08T00:15:44.068Z,0.8
2023-05-08T00:30:55.293Z,0.8
2023-05-08T00:45:46.175Z,1.1
2023-05-08T01:00:46.308Z,0.7
2023-05-08T01:15:46.132Z,1
2023-05-08T01:30:46.801Z,0.9
2023-05-08T01:45:46.956Z,0.9
2023-05-08T02:00:48.948Z,0.9
2023-05-08T02:15:48.574Z,0.9
2023-05-08T02:30:49.378Z,0.9
2023-05-08T02:45:51.309Z,0.9
2023-05-08T03:00:50.607Z,0.9
2023-05-08T03:15:51.349Z,1
2023-05-08T03:30:52.654Z,1
2023-05-08T03:46:04.516Z,1.2
2023-05-08T04:00:51.761Z,1
2023-05-08T04:15:49.926Z,0.9
2023-05-08T04:30:45.476Z,1.1
2023-05-08T05:45:50.772Z,1.8
2023-05-08T06:15:52.052Z,1.7
2023-05-08T06:30:51.728Z,1.9
2023-05-08T06:45:54.240Z,1.9
2023-05-08T07:00:53.437Z,1.2
2023-05-08T07:15:55.845Z,1.4
2023-05-08T07:30:54.913Z,1.2
2023-05-08T07:45:55.523Z,1.4
2023-05-08T08:00:57.038Z,1.4
2023-05-08T08:15:56.438Z,0.8
2023-05-08T08:30:57.394Z,0.4
2023-05-08T08:45:59.805Z,0.4
2023-05-08T09:00:58.493Z,0.4
2023-05-08T09:16:00.306Z,0.2
2023-05-08T09:31:00.278Z,0.4
2023-05-08T09:46:00.697Z,0.3
2023-05-08T10:01:02.913Z,0.3
2023-05-08T10:16:02.629Z,0.4
2023-05-08T10:31:04.091Z,0.3
2023-05-08T10:46:06.423Z,0.4
2023-05-08T11:01:08.290Z,0
2023-05-08T11:16:05.000Z,0.2
2023-05-08T11:31:06.481Z,0.1
2023-05-08T11:46:06.663Z,0.2
2023-05-08T12:01:07.765Z,0.5
2023-05-08T12:16:08.063Z,0.3
2023-05-08T12:31:08.361Z,0.4
2023-05-08T12:46:08.555Z,1.1
2023-05-08T13:01:09.255Z,1.3
2023-05-08T13:16:09.833Z,1.4
2023-05-08T13:31:10.548Z,0.9
2023-05-08T13:46:11.785Z,1.2
2023-05-08T14:01:27.395Z,1.2
2023-05-08T14:16:13.405Z,2.7
2023-05-08T14:31:12.881Z,3.9
2023-05-08T14:46:13.751Z,3.2
2023-05-08T15:01:13.944Z,4.4
2023-05-08T15:16:16.993Z,6
2023-05-08T15:31:15.529Z,8
2023-05-08T15:46:16.651Z,9.9
